createdAt,value
2018-07-31T00:01:44.326Z,55.52
2018-07-31T00:04:14.494Z,54.30
2018-07-31T00:06:44.378Z,52.24
2018-07-31T00:09:14.551Z,52.43
2018-07-31T00:11:44.374Z,53.91
2018-07-31T00:14:14.136Z,53.35
2018-07-31T00:16:43.939Z,55.34
2018-07-31T00:19:14.026Z,55.91
2018-07-31T00:21:44.039Z,55.28
2018-07-31T00:24:14.159Z,56.62
2018-07-31T00:26:43.961Z,56.41
2018-07-31T00:29:14.234Z,55.34
2018-07-31T00:31:44.153Z,57.37
2018-07-31T00:34:13.964Z,54.79
2018-07-31T00:36:43.967Z,53.34
2018-07-31T00:39:13.917Z,55.64
2018-07-31T00:41:44.149Z,56.49
2018-07-31T00:44:14.137Z,59.63
2018-07-31T00:46:44.312Z,54.98
2018-07-31T00:49:14.421Z,54.41
2018-07-31T00:51:44.510Z,58.53
2018-07-31T00:54:14.540Z,58.86
2018-07-31T00:56:44.321Z,57.75
2018-07-31T00:59:14.354Z,54.90
2018-07-31T01:01:44.566Z,54.40
2018-07-31T01:04:14.706Z,58.60
2018-07-31T01:06:44.979Z,56.63
2018-07-31T01:09:15.651Z,54.69
2018-07-31T01:11:45.454Z,57.41
2018-07-31T01:14:15.590Z,59.84
2018-07-31T01:16:45.749Z,55.38
2018-07-31T01:19:15.553Z,54.95
2018-07-31T01:21:45.693Z,55.85
2018-07-31T01:24:15.714Z,54.50
2018-07-31T01:26:45.737Z,53.68
2018-07-31T01:29:15.792Z,57.93
2018-07-31T01:31:45.836Z,60.14
2018-07-31T01:34:15.748Z,57.31
2018-07-31T01:36:45.610Z,60.26
2018-07-31T01:39:15.447Z,59.90
2018-07-31T01:41:45.439Z,56.45
2018-07-31T01:44:15.406Z,55.91
2018-07-31T01:46:45.446Z,56.46
2018-07-31T01:49:15.263Z,54.77
2018-07-31T01:51:44.979Z,62.22
2018-07-31T01:54:14.791Z,59.83
2018-07-31T01:56:44.669Z,59.76
2018-07-31T01:59:14.826Z,62.27
2018-07-31T02:01:44.550Z,60.13
2018-07-31T02:04:14.310Z,63.17
2018-07-31T02:06:44.527Z,58.71
2018-07-31T02:09:14.331Z,55.50
2018-07-31T02:11:44.261Z,55.50
2018-07-31T02:14:14.052Z,55.28
2018-07-31T02:16:44.226Z,57.97
2018-07-31T02:19:13.972Z,57.12
2018-07-31T02:21:43.761Z,58.59
2018-07-31T02:24:13.565Z,57.11
2018-07-31T02:26:43.354Z,56.68
2018-07-31T02:29:13.418Z,60.46
2018-07-31T02:31:43.252Z,60.53
2018-07-31T02:34:13.210Z,61.85
2018-07-31T02:36:43.504Z,61.52
2018-07-31T02:39:13.510Z,62.24
2018-07-31T02:41:43.324Z,62.52
2018-07-31T02:44:13.057Z,61.20
2018-07-31T02:46:42.863Z,60.22
2018-07-31T02:49:12.859Z,59.96
2018-07-31T02:51:42.917Z,59.73
2018-07-31T02:54:13.114Z,57.45
2018-07-31T02:56:42.911Z,57.93
2018-07-31T02:59:12.902Z,57.60
2018-07-31T03:01:42.655Z,57.24
2018-07-31T03:04:12.426Z,60.96
2018-07-31T03:06:42.274Z,63.58
2018-07-31T03:09:12.059Z,60.23
2018-07-31T03:11:41.884Z,56.91
2018-07-31T03:14:11.676Z,60.71
2018-07-31T03:16:41.987Z,57.68
2018-07-31T03:19:11.996Z,60.66
2018-07-31T03:21:41.963Z,63.70
2018-07-31T03:24:11.982Z,61.59
2018-07-31T03:26:41.766Z,64.76
2018-07-31T03:29:11.995Z,65.06
2018-07-31T03:31:41.723Z,61.48
2018-07-31T03:34:11.477Z,62.15
2018-07-31T03:36:41.811Z,60.27
2018-07-31T03:39:11.810Z,59.37
2018-07-31T03:41:41.890Z,57.73
2018-07-31T03:44:11.869Z,59.39
2018-07-31T03:46:42.023Z,59.33
2018-07-31T03:49:12.010Z,59.51
2018-07-31T03:51:42.027Z,59.78
2018-07-31T03:54:12.141Z,60.79
2018-07-31T03:56:41.914Z,61.10
2018-07-31T03:59:12.327Z,60.33
2018-07-31T04:01:42.410Z,62.75
2018-07-31T04:04:12.626Z,63.42
2018-07-31T04:06:43.119Z,59.69
2018-07-31T04:09:14.121Z,58.61
2018-07-31T04:11:44.098Z,59.14
2018-07-31T04:14:14.151Z,59.79
2018-07-31T04:16:44.106Z,61.66
2018-07-31T04:19:13.891Z,63.44
2018-07-31T04:21:43.634Z,62.28
2018-07-31T04:24:13.586Z,63.38
2018-07-31T04:26:43.518Z,63.67
2018-07-31T04:29:13.398Z,60.81
2018-07-31T04:31:43.940Z,58.88
2018-07-31T04:34:13.942Z,61.82
2018-07-31T04:36:43.693Z,61.51
2018-07-31T04:39:14.642Z,61.93
2018-07-31T04:41:44.594Z,64.12
2018-07-31T04:44:14.529Z,64.12
2018-07-31T04:46:44.309Z,64.32
2018-07-31T04:49:15.269Z,62.15
2018-07-31T04:51:46.384Z,62.48
2018-07-31T04:54:16.458Z,60.89
2018-07-31T04:56:46.318Z,59.53
2018-07-31T04:59:16.554Z,59.89
2018-07-31T05:01:46.370Z,59.87
2018-07-31T05:04:16.171Z,58.68
2018-07-31T05:06:46.178Z,58.01
2018-07-31T05:09:16.300Z,59.48
2018-07-31T05:11:46.240Z,58.26
2018-07-31T05:14:16.427Z,59.78
2018-07-31T05:16:46.258Z,62.54
2018-07-31T05:19:16.279Z,64.49
2018-07-31T05:21:46.226Z,66.00
2018-07-31T05:24:16.323Z,64.84
2018-07-31T05:26:46.214Z,67.60
2018-07-31T05:29:16.264Z,67.98
2018-07-31T05:31:46.242Z,66.41
2018-07-31T05:34:16.118Z,65.52
2018-07-31T05:36:46.272Z,66.00
2018-07-31T05:39:16.015Z,63.52
2018-07-31T05:41:45.934Z,62.83
2018-07-31T05:44:15.931Z,60.91
2018-07-31T05:46:45.699Z,59.54
2018-07-31T05:49:15.494Z,59.54
2018-07-31T05:51:45.615Z,59.49
2018-07-31T05:54:15.514Z,62.22
2018-07-31T05:56:45.508Z,64.08
2018-07-31T05:59:15.251Z,62.75
2018-07-31T06:01:45.554Z,63.04
2018-07-31T06:04:15.582Z,63.05
2018-07-31T06:06:45.529Z,61.91
2018-07-31T06:09:16.123Z,63.39
2018-07-31T06:11:46.283Z,61.31
2018-07-31T06:14:16.487Z,60.73
2018-07-31T06:16:46.770Z,60.68
2018-07-31T06:19:16.886Z,60.98
2018-07-31T06:21:46.972Z,60.40
2018-07-31T06:24:16.863Z,60.31
2018-07-31T06:26:46.880Z,66.61
2018-07-31T06:29:17.093Z,64.68
2018-07-31T06:31:47.246Z,61.38
2018-07-31T06:34:17.276Z,62.78
2018-07-31T06:36:47.322Z,60.62
2018-07-31T06:39:17.087Z,63.92
2018-07-31T06:41:47.202Z,62.96
2018-07-31T06:44:16.959Z,61.74
2018-07-31T06:46:47.091Z,63.88
2018-07-31T06:49:17.226Z,64.85
2018-07-31T06:51:47.013Z,64.12
2018-07-31T06:54:17.020Z,63.42
2018-07-31T06:56:46.842Z,64.16
2018-07-31T06:59:16.847Z,62.08
2018-07-31T07:01:46.778Z,59.89
2018-07-31T07:04:16.965Z,63.57
2018-07-31T07:06:46.798Z,60.78
2018-07-31T07:09:16.760Z,61.65
2018-07-31T07:11:46.803Z,60.63
2018-07-31T07:14:16.931Z,59.03
2018-07-31T07:16:46.744Z,60.68
2018-07-31T07:19:16.931Z,60.39
2018-07-31T07:21:46.929Z,61.05
2018-07-31T07:24:16.855Z,60.02
2018-07-31T07:26:46.790Z,63.05
2018-07-31T07:29:17.126Z,61.72
2018-07-31T07:31:47.106Z,62.93
2018-07-31T07:34:16.911Z,60.91
2018-07-31T07:36:46.875Z,62.27
2018-07-31T07:39:16.758Z,61.30
2018-07-31T07:41:47.041Z,62.06
2018-07-31T07:44:16.966Z,60.68
2018-07-31T07:46:47.009Z,59.99
2018-07-31T07:49:17.155Z,61.78
2018-07-31T07:51:47.138Z,60.08
2018-07-31T07:54:17.048Z,59.95
2018-07-31T07:56:46.986Z,60.74
2018-07-31T07:59:17.271Z,60.79
2018-07-31T08:01:47.254Z,60.67
2018-07-31T08:04:17.202Z,60.99
2018-07-31T08:06:47.476Z,59.44
2018-07-31T08:09:18.230Z,58.90
2018-07-31T08:11:48.422Z,58.71
2018-07-31T08:14:18.338Z,57.57
2018-07-31T08:16:48.429Z,58.25
2018-07-31T08:19:18.318Z,59.14
2018-07-31T08:21:48.174Z,57.92
2018-07-31T08:24:17.960Z,56.89
2018-07-31T08:26:48.034Z,56.47
2018-07-31T08:29:18.099Z,57.31
2018-07-31T08:31:48.189Z,55.91
2018-07-31T08:34:17.958Z,54.83
2018-07-31T08:36:47.842Z,55.00
2018-07-31T08:39:17.626Z,54.31
2018-07-31T08:41:47.460Z,52.44
2018-07-31T08:44:17.545Z,51.94
2018-07-31T08:46:47.380Z,51.47
2018-07-31T08:49:17.294Z,50.16
2018-07-31T08:51:47.269Z,50.56
2018-07-31T08:54:17.516Z,50.13
2018-07-31T08:56:47.609Z,49.07
2018-07-31T08:59:17.379Z,50.10
2018-07-31T09:01:47.662Z,50.40
2018-07-31T09:04:17.393Z,50.54
2018-07-31T09:06:47.191Z,48.58
2018-07-31T09:09:17.379Z,48.96
2018-07-31T09:11:47.387Z,48.80
2018-07-31T09:14:17.205Z,48.34
2018-07-31T09:16:47.479Z,47.36
2018-07-31T09:19:17.447Z,48.40
2018-07-31T09:21:47.449Z,48.28
2018-07-31T09:24:17.255Z,47.19
2018-07-31T09:26:47.187Z,47.81
2018-07-31T09:29:17.160Z,48.60
2018-07-31T09:31:47.130Z,46.67
2018-07-31T09:34:17.215Z,45.01
2018-07-31T09:36:47.216Z,44.90
2018-07-31T09:39:16.994Z,44.92
2018-07-31T09:41:47.019Z,44.46
2018-07-31T09:44:17.742Z,43.23
2018-07-31T09:46:47.590Z,43.83
2018-07-31T09:49:18.012Z,44.40
2018-07-31T09:51:48.634Z,44.04
2018-07-31T09:54:18.665Z,42.94
2018-07-31T09:56:48.622Z,42.98
2018-07-31T09:59:18.742Z,42.37
2018-07-31T10:01:48.540Z,41.10
2018-07-31T10:04:18.907Z,40.53
2018-07-31T10:06:48.878Z,40.93
2018-07-31T10:09:19.233Z,41.81
2018-07-31T10:11:49.336Z,41.44
2018-07-31T10:14:19.550Z,42.11
2018-07-31T10:16:50.672Z,42.34
2018-07-31T10:19:20.651Z,42.47
2018-07-31T10:21:50.496Z,41.81
2018-07-31T10:24:21.055Z,42.46
2018-07-31T10:26:51.079Z,42.21
2018-07-31T10:29:20.818Z,41.01
2018-07-31T10:31:51.303Z,42.14
2018-07-31T10:34:21.394Z,41.78
2018-07-31T10:36:51.388Z,41.07
2018-07-31T10:39:21.179Z,41.05
2018-07-31T10:41:51.118Z,41.33
2018-07-31T10:44:20.873Z,40.71
2018-07-31T10:46:50.870Z,41.04
2018-07-31T10:49:21.282Z,40.96
2018-07-31T10:51:51.628Z,40.42
2018-07-31T10:54:21.526Z,41.04
2018-07-31T10:56:51.595Z,41.16
2018-07-31T10:59:21.397Z,40.71
2018-07-31T11:01:51.428Z,39.63
2018-07-31T11:04:21.279Z,39.16
2018-07-31T11:06:51.665Z,38.02
2018-07-31T11:09:23.014Z,38.56
2018-07-31T11:11:52.963Z,37.99
2018-07-31T11:14:22.780Z,39.26
2018-07-31T11:16:52.559Z,39.30
2018-07-31T11:19:22.526Z,38.29
2018-07-31T11:21:52.422Z,38.90
2018-07-31T11:24:22.438Z,37.82
2018-07-31T11:26:52.238Z,39.13
2018-07-31T11:29:22.287Z,38.83
2018-07-31T11:31:52.098Z,38.47
2018-07-31T11:34:22.084Z,39.01
2018-07-31T11:36:52.108Z,38.42
2018-07-31T11:39:21.924Z,38.68
2018-07-31T11:41:52.699Z,37.17
2018-07-31T11:44:23.379Z,37.69
2018-07-31T11:46:55.569Z,38.31
2018-07-31T11:49:25.703Z,37.89
2018-07-31T11:51:57.240Z,38.09
2018-07-31T11:54:32.265Z,37.43
2018-07-31T11:57:03.209Z,37.39
2018-07-31T11:59:33.195Z,36.86
2018-07-31T12:02:03.339Z,36.30
2018-07-31T12:04:38.693Z,35.98
2018-07-31T12:07:08.670Z,35.06
2018-07-31T12:09:40.618Z,35.13
2018-07-31T12:12:11.324Z,36.00
2018-07-31T12:14:41.292Z,36.06
2018-07-31T12:17:11.119Z,35.72
2018-07-31T12:19:41.055Z,36.31
2018-07-31T12:22:11.859Z,35.77
2018-07-31T12:24:41.697Z,36.98
2018-07-31T12:27:11.643Z,35.97
2018-07-31T12:29:41.406Z,36.09
2018-07-31T12:32:11.379Z,35.43
2018-07-31T12:34:49.580Z,35.11
2018-07-31T12:37:19.761Z,36.24
2018-07-31T12:39:49.557Z,36.09
2018-07-31T12:42:19.680Z,35.71
2018-07-31T12:44:52.580Z,35.46
2018-07-31T12:47:33.451Z,35.75
2018-07-31T12:50:03.674Z,36.30
2018-07-31T12:52:33.582Z,34.88
2018-07-31T12:55:04.385Z,36.18
2018-07-31T12:57:34.402Z,34.50
2018-07-31T13:00:04.357Z,34.90
2018-07-31T13:02:34.250Z,35.39
2018-07-31T13:05:04.194Z,34.86
2018-07-31T13:07:33.978Z,35.55
2018-07-31T13:10:04.046Z,34.72
2018-07-31T13:12:33.868Z,36.25
2018-07-31T13:15:03.876Z,35.84
2018-07-31T13:17:37.592Z,35.64
2018-07-31T13:20:07.456Z,35.28
2018-07-31T13:22:39.995Z,36.00
2018-07-31T13:25:10.085Z,35.40
2018-07-31T13:27:40.408Z,36.68
2018-07-31T13:30:10.302Z,35.46
2018-07-31T13:32:40.298Z,36.06
2018-07-31T13:35:10.304Z,34.38
2018-07-31T13:37:40.651Z,35.14
2018-07-31T13:40:10.702Z,33.67
2018-07-31T13:42:40.665Z,35.01
2018-07-31T13:45:10.586Z,34.38
2018-07-31T13:47:40.386Z,34.41
2018-07-31T13:50:10.654Z,33.65
2018-07-31T13:52:41.261Z,34.41
2018-07-31T13:55:11.280Z,34.83
2018-07-31T13:57:41.371Z,35.20
2018-07-31T14:00:11.844Z,35.15
2018-07-31T14:02:43.870Z,34.45
2018-07-31T14:05:14.796Z,34.32
2018-07-31T14:07:44.770Z,34.31
2018-07-31T14:10:15.038Z,35.67
2018-07-31T14:12:45.733Z,34.53
2018-07-31T14:15:15.962Z,35.73
2018-07-31T14:17:45.895Z,35.06
2018-07-31T14:20:15.906Z,35.57
2018-07-31T14:22:45.862Z,35.14
2018-07-31T14:25:15.872Z,35.31
2018-07-31T14:27:45.942Z,34.98
2018-07-31T14:30:16.026Z,34.55
2018-07-31T14:32:46.189Z,34.74
2018-07-31T14:35:16.148Z,34.62
2018-07-31T14:37:46.219Z,34.11
2018-07-31T14:40:16.468Z,34.01
2018-07-31T14:42:46.739Z,34.88
2018-07-31T14:45:16.824Z,34.30
2018-07-31T14:47:46.676Z,33.18
2018-07-31T14:50:17.260Z,34.57
2018-07-31T14:52:47.363Z,33.46
2018-07-31T14:55:17.415Z,34.94
2018-07-31T14:57:47.507Z,34.36
2018-07-31T15:00:17.644Z,34.60
2018-07-31T15:02:47.618Z,33.77
2018-07-31T15:05:17.770Z,34.10
2018-07-31T15:07:48.756Z,34.67
2018-07-31T15:10:19.153Z,33.68
2018-07-31T15:12:49.202Z,33.15
2018-07-31T15:15:19.967Z,32.64
2018-07-31T15:17:50.077Z,33.59
2018-07-31T15:20:20.225Z,33.41
2018-07-31T15:22:50.435Z,33.50
2018-07-31T15:25:20.394Z,32.03
2018-07-31T15:28:01.152Z,33.17
2018-07-31T15:30:31.428Z,32.72
2018-07-31T15:33:01.626Z,32.42
2018-07-31T15:35:31.805Z,31.83
2018-07-31T15:38:01.785Z,31.39
2018-07-31T15:40:31.993Z,31.58
2018-07-31T15:43:02.207Z,31.06
2018-07-31T15:45:37.007Z,31.93
2018-07-31T15:48:07.406Z,33.60
2018-07-31T15:50:37.595Z,31.94
2018-07-31T15:53:27.750Z,30.57
2018-07-31T15:55:57.954Z,31.22
2018-07-31T15:58:28.428Z,32.33
2018-07-31T16:04:09.899Z,30.10
2018-07-31T16:06:48.892Z,31.75
2018-07-31T16:09:19.426Z,31.17
2018-07-31T16:11:53.248Z,29.72
2018-07-31T16:14:49.656Z,29.91
2018-07-31T16:17:20.568Z,29.43
2018-07-31T16:19:50.667Z,28.61
2018-07-31T16:22:20.655Z,30.95
2018-07-31T16:24:53.243Z,28.45
2018-07-31T16:27:25.574Z,29.54
2018-07-31T16:29:55.948Z,29.87
2018-07-31T16:32:26.606Z,28.43
2018-07-31T16:34:58.720Z,28.92
2018-07-31T16:40:39.613Z,28.65
2018-07-31T16:43:11.070Z,27.98
2018-07-31T16:45:41.249Z,28.23
2018-07-31T16:48:12.369Z,28.84
2018-07-31T16:50:43.560Z,28.40
2018-07-31T16:53:13.571Z,30.35
2018-07-31T16:55:43.680Z,28.09
2018-07-31T17:01:51.705Z,29.00
2018-07-31T17:07:20.538Z,29.73
2018-07-31T17:10:14.654Z,29.86
2018-07-31T17:12:57.919Z,30.98
2018-07-31T17:15:27.699Z,30.52
2018-07-31T17:18:21.345Z,31.58
2018-07-31T17:21:20.482Z,31.91
2018-07-31T17:24:10.475Z,31.25
2018-07-31T17:26:40.419Z,31.05
2018-07-31T17:29:10.280Z,30.62
2018-07-31T17:31:40.199Z,32.63
2018-07-31T17:34:10.688Z,33.33
2018-07-31T17:36:40.938Z,34.64
2018-07-31T17:39:11.851Z,34.12
2018-07-31T17:41:42.147Z,34.16
2018-07-31T17:44:12.097Z,35.25
2018-07-31T17:46:42.014Z,34.36
2018-07-31T17:49:13.299Z,36.05
2018-07-31T17:51:43.456Z,36.21
2018-07-31T17:54:15.185Z,35.25
2018-07-31T17:56:45.311Z,37.15
2018-07-31T17:59:15.257Z,36.50
2018-07-31T18:01:45.411Z,36.28
2018-07-31T18:04:15.558Z,35.87
2018-07-31T18:06:49.306Z,36.01
2018-07-31T18:09:20.041Z,36.94
2018-07-31T18:11:50.236Z,35.68
2018-07-31T18:14:21.857Z,36.05
2018-07-31T18:16:52.711Z,37.57
2018-07-31T18:19:24.129Z,37.36
2018-07-31T18:21:54.374Z,36.90
2018-07-31T18:24:24.626Z,36.46
2018-07-31T18:26:54.655Z,37.04
2018-07-31T18:29:24.667Z,37.61
2018-07-31T18:31:54.719Z,37.37
2018-07-31T18:34:24.710Z,37.11
2018-07-31T18:36:54.824Z,39.68
2018-07-31T18:39:24.918Z,41.19
2018-07-31T18:41:54.927Z,39.27
2018-07-31T18:44:25.269Z,41.28
2018-07-31T18:46:55.067Z,39.40
2018-07-31T18:49:25.282Z,39.64
2018-07-31T18:51:55.162Z,40.53
2018-07-31T18:54:26.341Z,40.14
2018-07-31T18:56:56.446Z,40.92
2018-07-31T18:59:26.221Z,40.50
2018-07-31T19:01:56.308Z,39.80
2018-07-31T19:04:26.657Z,40.21
2018-07-31T19:06:57.515Z,40.68
2018-07-31T19:09:27.786Z,39.99
2018-07-31T19:11:58.616Z,40.42
2018-07-31T19:14:28.659Z,40.28
2018-07-31T19:17:00.548Z,40.76
2018-07-31T19:19:30.823Z,40.59
2018-07-31T19:22:02.332Z,41.08
2018-07-31T19:24:32.549Z,41.34
2018-07-31T19:27:02.910Z,41.21
2018-07-31T19:29:32.986Z,40.64
2018-07-31T19:32:04.369Z,42.32
2018-07-31T19:34:42.901Z,41.60
2018-07-31T19:37:13.404Z,41.94
2018-07-31T19:39:47.376Z,42.14
2018-07-31T19:42:19.076Z,42.17
2018-07-31T19:44:49.708Z,42.08
2018-07-31T19:47:20.092Z,42.65
2018-07-31T19:49:50.547Z,41.80
2018-07-31T19:52:22.456Z,43.57
2018-07-31T19:54:53.711Z,43.34
2018-07-31T19:57:24.157Z,43.83
2018-07-31T19:59:54.895Z,43.07
2018-07-31T20:02:25.382Z,42.37
2018-07-31T20:04:55.953Z,42.25
2018-07-31T20:07:26.251Z,43.03
2018-07-31T20:09:56.664Z,42.62
2018-07-31T20:12:26.792Z,42.59
2018-07-31T20:14:56.711Z,43.30
2018-07-31T20:17:33.098Z,42.59
2018-07-31T20:20:03.501Z,43.13
2018-07-31T20:22:33.335Z,43.68
2018-07-31T20:25:03.245Z,44.13
2018-07-31T20:27:33.018Z,42.26
2018-07-31T20:30:03.050Z,43.91
2018-07-31T20:32:32.823Z,44.04
2018-07-31T20:35:02.711Z,44.52
2018-07-31T20:37:32.622Z,44.24
2018-07-31T20:40:02.650Z,43.59
2018-07-31T20:42:32.638Z,42.75
2018-07-31T20:45:02.612Z,43.87
2018-07-31T20:47:32.529Z,43.96
2018-07-31T20:50:03.691Z,43.49
2018-07-31T20:52:33.511Z,44.32
2018-07-31T20:55:03.286Z,45.13
2018-07-31T20:57:33.286Z,45.19
2018-07-31T21:00:03.390Z,45.28
2018-07-31T21:02:33.552Z,45.17
2018-07-31T21:05:03.935Z,44.91
2018-07-31T21:07:33.819Z,45.17
2018-07-31T21:10:03.915Z,44.30
2018-07-31T21:12:40.343Z,43.88
2018-07-31T21:15:10.420Z,44.00
2018-07-31T21:17:40.457Z,46.30
2018-07-31T21:20:10.652Z,46.19
2018-07-31T21:22:41.251Z,46.26
2018-07-31T21:25:12.276Z,45.62
2018-07-31T21:27:42.336Z,44.48
2018-07-31T21:30:12.142Z,44.51
2018-07-31T21:32:42.035Z,44.63
2018-07-31T21:35:26.485Z,45.34
2018-07-31T21:37:56.446Z,45.14
2018-07-31T21:40:27.601Z,45.89
2018-07-31T21:42:57.486Z,47.19
2018-07-31T21:45:27.453Z,47.24
2018-07-31T21:47:57.213Z,48.68
2018-07-31T21:50:27.083Z,48.50
2018-07-31T21:52:56.862Z,49.00
2018-07-31T21:55:27.022Z,48.64
2018-07-31T21:57:57.049Z,47.20
2018-07-31T22:00:27.762Z,45.79
2018-07-31T22:02:57.528Z,45.75
2018-07-31T22:05:27.460Z,46.82
2018-07-31T22:08:03.358Z,48.62
2018-07-31T22:10:45.443Z,47.01
2018-07-31T22:13:17.459Z,48.38
2018-07-31T22:15:47.362Z,49.71
2018-07-31T22:18:17.244Z,48.42
2018-07-31T22:20:47.265Z,48.35
2018-07-31T22:23:17.275Z,47.66
2018-07-31T22:25:47.341Z,47.77
2018-07-31T22:28:17.293Z,47.91
2018-07-31T22:30:47.274Z,47.94
2018-07-31T22:33:17.349Z,47.38
2018-07-31T22:35:59.194Z,48.69
2018-07-31T22:38:29.022Z,48.97
2018-07-31T22:40:58.986Z,48.68
2018-07-31T22:43:28.904Z,48.40
2018-07-31T22:45:59.370Z,48.17
2018-07-31T22:48:29.269Z,47.95
2018-07-31T22:50:59.245Z,49.23
2018-07-31T22:53:29.291Z,48.54
2018-07-31T22:55:59.386Z,47.62
2018-07-31T22:58:29.228Z,48.34
2018-07-31T23:00:59.887Z,47.94
2018-07-31T23:03:30.200Z,48.45
2018-07-31T23:06:00.571Z,49.05
2018-07-31T23:08:30.465Z,48.86
2018-07-31T23:11:00.290Z,48.34
2018-07-31T23:13:30.175Z,49.28
2018-07-31T23:16:00.482Z,48.38
2018-07-31T23:18:30.467Z,48.94
2018-07-31T23:21:00.423Z,49.34
2018-07-31T23:23:30.449Z,49.28
2018-07-31T23:26:00.302Z,48.60
2018-07-31T23:28:30.147Z,48.58
2018-07-31T23:30:59.943Z,47.57
2018-07-31T23:33:31.083Z,48.25
2018-07-31T23:36:01.228Z,47.98
2018-07-31T23:38:31.213Z,48.80
2018-07-31T23:41:01.230Z,49.67
2018-07-31T23:43:31.110Z,49.21
2018-07-31T23:46:00.822Z,49.98
2018-07-31T23:48:30.907Z,50.99
2018-07-31T23:51:00.982Z,50.72
2018-07-31T23:53:31.003Z,50.94
2018-07-31T23:56:01.074Z,50.66
2018-07-31T23:58:30.982Z,49.17
